Time;durP1;ratioP1;P1;durP2;ratioP2;P2;SDS_P1;SDS_P2;PMS_P1;PMS_P2;Temp;Humidity;BMP_temperature;BMP_pressure;BME280_temperature;BME280_humidity;BME280_pressure;Samples;Min_cycle;Max_cycle;Signal;HPM_P1;HPM_P2
2023/03/03 00:02:00;;;;;;;1.95;0.10;;;;;;;4.26;51.95;101467.22;4965895;28;20053;-73
2023/03/03 00:04:27;;;;;;;1.45;0.10;;;;;;;4.33;52.07;101474.28;4965824;28;20047;-73
2023/03/03 00:06:54;;;;;;;1.20;0.10;;;;;;;4.30;51.91;101461.28;4964449;28;20500;-74
2023/03/03 00:09:21;;;;;;;1.63;0.10;;;;;;;4.32;51.86;101459.59;4960947;28;20062;-73
2023/03/03 00:11:55;;;;;;;3.90;0.30;;;;;;;4.30;51.62;101456.13;4964666;28;20062;-74
2023/03/03 00:14:26;;;;;;;2.47;0.10;;;;;;;4.31;51.88;101456.97;4963072;28;20053;-73
2023/03/03 00:16:53;;;;;;;3.05;0.40;;;;;;;4.32;51.86;101469.94;4966963;28;20053;-73
2023/03/03 00:19:20;;;;;;;1.67;0.10;;;;;;;4.30;52.15;101461.28;4965375;28;20088;-74
2023/03/03 00:21:49;;;;;;;4.35;0.10;;;;;;;4.29;52.24;101454.34;4966892;28;20666;-74
2023/03/03 00:24:22;;;;;;;3.00;0.10;;;;;;;4.22;52.30;101443.03;4964781;28;20503;-73
2023/03/03 00:26:53;;;;;;;1.90;0.20;;;;;;;4.27;52.04;101458.66;4965883;28;20555;-73
2023/03/03 00:29:40;;;;;;;4.07;0.20;;;;;;;4.26;52.26;101462.06;4965016;28;20057;-73
2023/03/03 00:32:24;;;;;;;3.92;0.20;;;;;;;4.26;52.32;101454.31;4966722;28;20506;-74
2023/03/03 00:34:53;;;;;;;2.35;0.45;;;;;;;4.22;52.21;101455.97;4962348;28;20056;-74
2023/03/03 00:37:28;;;;;;;1.52;0.13;;;;;;;4.24;52.34;101461.16;4966198;28;20057;-74
2023/03/03 00:40:02;;;;;;;5.22;0.63;;;;;;;4.22;52.00;101452.53;4964945;28;20058;-74
2023/03/03 00:42:35;;;;;;;2.58;0.10;;;;;;;4.16;51.97;101442.06;4964586;28;20051;-74
2023/03/03 00:45:02;;;;;;;1.67;0.13;;;;;;;4.18;52.26;101448.97;4965116;28;20054;-73
2023/03/03 00:47:32;;;;;;;4.57;0.20;;;;;;;4.12;52.16;101443.69;4964363;28;20054;-74
2023/03/03 00:50:31;;;;;;;3.90;1.45;;;;;;;4.16;52.42;101455.00;4965950;28;20171;-73
2023/03/03 00:53:02;;;;;;;1.88;0.17;;;;;;;4.15;52.08;101456.69;4960650;28;20060;-74
2023/03/03 00:55:30;;;;;;;1.20;0.10;;;;;;;4.14;52.28;101452.38;4963990;28;20085;-74
2023/03/03 00:57:59;;;;;;;1.85;0.20;;;;;;;4.13;51.95;101453.22;4965880;28;20054;-74
2023/03/03 01:00:26;;;;;;;6.20;1.17;;;;;;;4.13;52.42;101452.34;4964148;28;20043;-74
2023/03/03 01:02:56;;;;;;;3.25;0.45;;;;;;;4.08;52.17;101448.81;4963496;28;20065;-73
2023/03/03 01:05:23;;;;;;;1.70;0.10;;;;;;;4.11;52.41;101452.31;4967108;28;20050;-73
2023/03/03 01:07:50;;;;;;;2.88;0.10;;;;;;;4.08;52.23;101447.09;4964091;28;20047;-73
2023/03/03 01:10:17;;;;;;;4.15;0.15;;;;;;;4.10;52.35;101444.50;4964965;28;20959;-74
2023/03/03 01:12:44;;;;;;;2.28;0.13;;;;;;;4.10;52.34;101447.09;4962896;28;20330;-73
2023/03/03 01:15:14;;;;;;;6.88;0.55;;;;;;;4.08;52.10;101444.50;4965172;28;20404;-74
2023/03/03 01:17:42;;;;;;;1.48;0.17;;;;;;;4.04;52.71;101441.00;4965210;28;20046;-73
2023/03/03 01:20:11;;;;;;;4.97;1.70;;;;;;;4.08;52.31;101444.50;4965094;28;20113;-73
2023/03/03 01:22:38;;;;;;;2.38;0.10;;;;;;;4.06;52.42;101447.03;4964635;28;20051;-73
2023/03/03 01:25:06;;;;;;;0.50;0.10;;;;;;;4.08;52.14;101439.34;4964743;28;20062;-74
2023/03/03 01:27:35;;;;;;;2.90;0.20;;;;;;;4.03;52.50;101440.94;4965049;28;20055;-73
2023/03/03 01:30:02;;;;;;;0.60;0.10;;;;;;;4.04;52.36;101437.50;4963401;28;20059;-73
2023/03/03 01:32:30;;;;;;;2.97;0.20;;;;;;;4.06;52.23;101447.03;4965297;28;20941;-73
2023/03/03 01:34:57;;;;;;;6.75;0.50;;;;;;;3.99;52.70;101432.28;4962796;28;20133;-72
2023/03/03 01:37:24;;;;;;;3.05;0.05;;;;;;;3.99;52.50;101428.81;4965003;28;20051;-74
2023/03/03 01:39:52;;;;;;;3.47;0.10;;;;;;;3.99;52.50;101436.56;4957387;28;20062;-73
2023/03/03 01:42:19;;;;;;;4.63;0.10;;;;;;;4.04;52.37;101443.59;4963829;28;20053;-74
2023/03/03 01:44:47;;;;;;;3.00;0.10;;;;;;;4.02;52.56;101434.06;4967241;28;20054;-73
2023/03/03 01:47:16;;;;;;;2.08;0.03;;;;;;;4.02;52.38;101436.63;4967087;28;20102;-74
2023/03/03 01:49:49;;;;;;;4.57;0.20;;;;;;;4.01;52.30;101435.78;4969416;28;20058;-74
2023/03/03 01:52:26;;;;;;;4.88;0.20;;;;;;;4.00;52.59;101426.25;4968042;28;20365;-74
2023/03/03 01:54:57;;;;;;;4.22;0.10;;;;;;;4.01;52.41;101424.53;4969265;28;20118;-74
2023/03/03 01:57:28;;;;;;;4.65;0.20;;;;;;;4.01;52.52;101429.69;4967018;28;20073;-73
2023/03/03 01:59:58;;;;;;;5.47;0.55;;;;;;;3.97;52.63;101415.84;4968376;28;20057;-74
2023/03/03 02:02:28;;;;;;;6.20;0.10;;;;;;;3.98;52.46;101427.06;4969279;28;20059;-73
2023/03/03 02:04:56;;;;;;;2.35;0.20;;;;;;;3.97;52.60;101415.00;4967995;28;20691;-73
2023/03/03 02:07:27;;;;;;;5.60;0.20;;;;;;;3.97;52.23;101412.41;4968586;28;20556;-73
2023/03/03 02:09:59;;;;;;;3.20;0.10;;;;;;;3.93;52.69;101411.50;4967693;28;20058;-74
2023/03/03 02:12:32;;;;;;;2.92;0.20;;;;;;;3.88;52.40;101414.81;4967623;28;20062;-74
2023/03/03 02:14:59;;;;;;;2.35;0.25;;;;;;;3.91;52.71;101423.50;4964113;28;20047;-73
2023/03/03 02:17:26;;;;;;;4.88;0.30;;;;;;;3.93;52.71;101428.72;4966718;28;20579;-74
2023/03/03 02:20:01;;;;;;;2.53;0.13;;;;;;;3.91;52.55;101431.25;4968141;28;20050;-74
2023/03/03 02:22:38;;;;;;;4.20;0.30;;;;;;;3.92;52.90;101429.53;4966409;28;20047;-74
2023/03/03 02:25:11;;;;;;;2.15;0.20;;;;;;;3.90;52.64;101426.03;4966839;28;20058;-73
2023/03/03 02:27:39;;;;;;;0.93;0.00;;;;;;;3.90;52.51;101426.03;4966043;28;20050;-73
2023/03/03 02:30:14;;;;;;;2.75;0.20;;;;;;;3.88;52.49;101420.84;4968780;28;20077;-74
2023/03/03 02:32:40;;;;;;;3.93;0.10;;;;;;;3.69;52.48;101388.59;4966855;28;20046;-74
2023/03/03 02:35:28;;;;;;;1.45;0.10;;;;;;;3.89;52.68;101411.38;4962916;28;20058;-73
2023/03/03 02:37:59;;;;;;;3.65;0.50;;;;;;;3.85;52.64;101409.59;4967621;28;20133;-74
2023/03/03 02:40:31;;;;;;;4.70;0.20;;;;;;;3.82;52.72;101411.28;4961789;28;20059;-73
2023/03/03 02:43:03;;;;;;;6.60;0.15;;;;;;;3.87;52.55;101424.28;4964178;28;20053;-74
2023/03/03 02:45:29;;;;;;;1.33;0.10;;;;;;;3.76;53.28;101411.16;4965993;28;20061;-73
2023/03/03 02:47:56;;;;;;;3.50;0.10;;;;;;;3.87;53.17;101425.97;4964834;28;20534;-73
2023/03/03 02:50:23;;;;;;;2.95;0.20;;;;;;;3.77;53.06;101420.63;4968307;28;20052;-73
2023/03/03 02:52:50;;;;;;;2.50;0.20;;;;;;;3.86;53.20;101424.25;4967734;28;20046;-73
2023/03/03 02:55:17;;;;;;;4.30;0.20;;;;;;;3.85;53.05;101431.13;4966701;28;20054;-74
2023/03/03 02:57:44;;;;;;;1.83;0.10;;;;;;;3.84;53.02;101426.78;4965222;28;20442;-74
2023/03/03 03:00:13;;;;;;;3.45;0.13;;;;;;;3.82;53.05;101431.09;4963279;28;20165;-73
2023/03/03 03:02:40;;;;;;;2.50;0.10;;;;;;;3.83;52.84;101427.66;4965223;28;20488;-73
2023/03/03 03:05:08;;;;;;;4.25;0.55;;;;;;;3.83;53.15;101422.47;4965359;28;20517;-73
2023/03/03 03:07:35;;;;;;;0.55;0.10;;;;;;;3.82;53.14;101429.38;4963399;28;20061;-73
2023/03/03 03:10:02;;;;;;;5.63;0.13;;;;;;;3.80;53.19;101428.44;4967620;28;20054;-74
2023/03/03 03:12:29;;;;;;;2.83;0.35;;;;;;;3.81;52.86;101432.81;4965721;28;20058;-74
2023/03/03 03:14:56;;;;;;;5.25;0.13;;;;;;;3.81;52.91;101435.38;4964912;28;20142;-74
2023/03/03 03:17:24;;;;;;;1.42;0.20;;;;;;;3.81;52.74;101434.50;4969348;28;20054;-80
2023/03/03 03:19:51;;;;;;;5.90;0.10;;;;;;;3.80;53.18;101433.63;4974855;28;20046;-79
2023/03/03 03:22:18;;;;;;;2.63;0.10;;;;;;;3.79;53.15;101425.84;4978776;28;20055;-80
2023/03/03 03:24:45;;;;;;;4.13;0.20;;;;;;;3.79;52.85;101428.44;4972137;28;20043;-80
2023/03/03 03:27:12;;;;;;;7.65;0.20;;;;;;;3.79;52.81;101421.56;4970353;28;20047;-80
2023/03/03 03:29:39;;;;;;;3.92;0.40;;;;;;;3.76;52.42;101416.31;4974730;28;20046;-79
2023/03/03 03:32:06;;;;;;;3.95;0.20;;;;;;;3.74;53.17;101405.09;4972769;28;20050;-80
2023/03/03 03:34:34;;;;;;;4.53;0.25;;;;;;;3.78;53.35;101414.63;4976288;28;21633;-80
2023/03/03 03:37:01;;;;;;;3.60;0.10;;;;;;;3.77;52.70;101412.03;4977050;28;20046;-80
2023/03/03 03:39:28;;;;;;;5.30;0.10;;;;;;;3.73;53.09;101405.03;4974215;28;20066;-79
2023/03/03 03:41:55;;;;;;;5.35;0.30;;;;;;;3.71;53.07;101407.59;4977600;28;20054;-79
2023/03/03 03:44:24;;;;;;;1.88;0.13;;;;;;;3.75;53.30;101408.53;4973832;28;20115;-80
2023/03/03 03:46:51;;;;;;;5.10;0.20;;;;;;;3.63;53.18;101388.50;4975602;28;20485;-79
2023/03/03 03:49:18;;;;;;;0.82;0.10;;;;;;;3.73;52.81;101408.53;4977250;28;20732;-79
2023/03/03 03:51:46;;;;;;;1.83;0.10;;;;;;;3.70;53.00;101405.88;4963335;28;20480;-80
2023/03/03 03:54:13;;;;;;;4.95;0.20;;;;;;;3.66;52.90;101409.22;4973600;28;20058;-79
2023/03/03 03:56:40;;;;;;;1.45;0.10;;;;;;;3.71;52.83;101410.19;4975305;28;20050;-80
2023/03/03 03:59:07;;;;;;;2.60;0.43;;;;;;;3.70;53.13;101412.72;4975604;28;20054;-79
2023/03/03 04:01:34;;;;;;;2.10;0.20;;;;;;;3.66;53.10;101409.22;4975953;28;20051;-79
2023/03/03 04:04:01;;;;;;;3.80;0.10;;;;;;;3.67;52.64;101416.16;4975402;28;20047;-79
2023/03/03 04:06:28;;;;;;;5.78;1.15;;;;;;;3.65;52.67;101417.81;4974706;28;20129;-80
2023/03/03 04:08:57;;;;;;;7.88;1.27;;;;;;;3.53;52.67;101396.88;4975089;28;20057;-81
2023/03/03 04:11:24;;;;;;;1.58;0.10;;;;;;;3.48;52.69;101393.38;4975814;28;20062;-80
2023/03/03 04:13:51;;;;;;;6.25;1.05;;;;;;;3.59;52.92;101409.97;4975717;28;20061;-80
2023/03/03 04:16:17;;;;;;;2.92;0.20;;;;;;;3.60;52.55;101414.28;4974392;28;20074;-80
2023/03/03 04:18:44;;;;;;;2.67;0.10;;;;;;;3.58;52.74;101403.03;4972222;28;20053;-81
2023/03/03 04:21:13;;;;;;;2.42;0.10;;;;;;;3.54;53.00;101403.81;4976166;28;20047;-80
2023/03/03 04:23:40;;;;;;;1.83;0.00;;;;;;;3.40;53.05;101376.84;4974988;28;20042;-80
2023/03/03 04:26:09;;;;;;;2.63;0.10;;;;;;;3.52;53.24;101396.03;4975557;28;20047;-80
2023/03/03 04:28:36;;;;;;;2.70;0.25;;;;;;;3.52;52.82;101402.91;4973982;28;20039;-80
2023/03/03 04:31:03;;;;;;;1.85;0.10;;;;;;;3.51;52.98;101398.59;4977020;28;20050;-81
2023/03/03 04:33:30;;;;;;;5.32;0.20;;;;;;;3.48;52.90;101398.53;4967841;28;20046;-79
2023/03/03 04:35:57;;;;;;;4.45;0.43;;;;;;;3.48;53.26;101403.69;4973033;28;20054;-81
2023/03/03 04:38:25;;;;;;;5.55;0.55;;;;;;;3.48;53.24;101406.28;4971982;28;20053;-81
2023/03/03 04:40:52;;;;;;;3.70;0.15;;;;;;;3.44;53.32;101394.13;4975341;28;20054;-81
2023/03/03 04:43:20;;;;;;;3.28;0.55;;;;;;;3.45;53.25;101398.47;4973153;28;20050;-80
2023/03/03 04:45:47;;;;;;;3.85;0.65;;;;;;;3.43;53.20;101389.81;4974316;28;20050;-81
2023/03/03 04:48:14;;;;;;;0.95;0.08;;;;;;;3.43;53.05;101393.25;4973626;28;20744;-80
2023/03/03 04:50:42;;;;;;;1.75;0.10;;;;;;;3.42;53.37;101396.69;4971215;28;20039;-80
2023/03/03 04:53:09;;;;;;;3.95;0.20;;;;;;;3.35;53.01;101379.31;4973089;28;20062;-81
2023/03/03 04:55:37;;;;;;;6.47;0.20;;;;;;;3.38;53.39;101381.97;4974850;28;20410;-81
2023/03/03 04:58:04;;;;;;;2.33;0.10;;;;;;;3.38;53.38;101387.13;4976413;28;20499;-80
2023/03/03 05:00:32;;;;;;;1.17;0.10;;;;;;;3.37;53.61;101385.38;4973451;28;20047;-80
2023/03/03 05:02:59;;;;;;;3.25;0.20;;;;;;;3.34;53.44;101390.50;4975373;28;20519;-81
2023/03/03 05:05:26;;;;;;;2.53;0.15;;;;;;;3.29;53.65;101382.63;4977492;28;21467;-81
2023/03/03 05:07:56;;;;;;;2.17;0.30;;;;;;;3.11;53.49;101349.56;4975677;28;20061;-80
2023/03/03 05:10:23;;;;;;;3.30;0.20;;;;;;;3.30;53.23;101376.66;4974174;28;20526;-82
2023/03/03 05:12:50;;;;;;;1.38;0.15;;;;;;;3.29;53.55;101372.31;4973262;28;20056;-80
2023/03/03 05:15:17;;;;;;;3.55;0.17;;;;;;;3.23;53.85;101361.84;4970553;28;20042;-80
2023/03/03 05:17:45;;;;;;;1.10;0.75;;;;;;;3.26;53.44;101361.06;4974461;28;20046;-81
2023/03/03 05:20:13;;;;;;;2.00;0.15;;;;;;;3.18;53.78;101353.13;4974834;28;20046;-81
2023/03/03 05:22:40;;;;;;;5.25;0.35;;;;;;;3.22;53.26;101365.28;4976692;28;20050;-80
2023/03/03 05:25:11;;;;;;;2.28;0.10;;;;;;;3.20;53.25;101366.09;4974738;28;20046;-80
2023/03/03 05:27:38;;;;;;;2.08;0.15;;;;;;;3.18;53.26;101365.19;4976479;28;20119;-81
2023/03/03 05:30:06;;;;;;;1.85;0.20;;;;;;;3.17;53.89;101366.03;4976252;28;20063;-80
2023/03/03 05:32:33;;;;;;;1.13;0.20;;;;;;;3.16;53.34;101370.34;4978699;28;20046;-81
2023/03/03 05:35:01;;;;;;;2.28;0.50;;;;;;;3.13;53.87;101365.06;4976442;28;20522;-79
2023/03/03 05:37:28;;;;;;;0.77;0.17;;;;;;;3.10;53.77;101355.59;4978670;28;20050;-80
2023/03/03 05:39:55;;;;;;;4.40;0.20;;;;;;;3.08;53.40;101353.81;4979041;28;20151;-80
2023/03/03 05:42:22;;;;;;;6.88;0.20;;;;;;;2.99;53.44;101336.41;4978110;28;20051;-80
2023/03/03 05:44:49;;;;;;;2.35;0.30;;;;;;;3.03;54.10;101343.38;4976787;28;20043;-80
2023/03/03 05:47:16;;;;;;;0.82;0.13;;;;;;;3.02;53.75;101345.94;4974887;28;20073;-80
2023/03/03 05:49:43;;;;;;;3.17;0.10;;;;;;;2.99;54.06;101345.84;4977281;28;20074;-79
2023/03/03 05:52:11;;;;;;;6.20;0.30;;;;;;;2.91;54.03;101346.56;4973683;28;20089;-80
2023/03/03 05:54:38;;;;;;;3.13;0.30;;;;;;;2.92;54.33;101356.03;4977500;28;20042;-80
2023/03/03 05:57:05;;;;;;;3.95;0.20;;;;;;;2.93;54.11;101364.63;4977973;28;20046;-80
2023/03/03 05:59:32;;;;;;;4.50;0.20;;;;;;;2.90;54.07;101362.88;4977060;28;20054;-79
2023/03/03 06:01:59;;;;;;;4.65;1.13;;;;;;;2.88;53.91;101354.22;4972660;28;20065;-80
2023/03/03 06:04:25;;;;;;;2.25;0.10;;;;;;;2.86;54.61;101355.91;4976792;28;20050;-79
2023/03/03 06:06:52;;;;;;;7.55;0.30;;;;;;;2.85;54.17;101359.34;4977432;28;20057;-79
2023/03/03 06:09:21;;;;;;;5.25;0.20;;;;;;;2.84;54.47;101360.16;4975479;28;20054;-81
2023/03/03 06:11:48;;;;;;;3.77;0.30;;;;;;;2.82;53.95;101359.25;4933665;28;1253580;-79
2023/03/03 06:14:15;;;;;;;1.60;0.35;;;;;;;2.80;54.16;101352.31;4976894;28;21188;-80
2023/03/03 06:16:42;;;;;;;6.22;0.82;;;;;;;2.77;54.48;101345.38;4976138;28;20050;-79
2023/03/03 06:19:09;;;;;;;9.18;0.30;;;;;;;2.79;54.71;101355.72;4975425;28;20061;-79
2023/03/03 06:21:35;;;;;;;5.55;0.30;;;;;;;2.78;54.83;101347.13;4978619;28;20054;-79
2023/03/03 06:24:03;;;;;;;1.77;0.15;;;;;;;2.78;54.07;101346.25;4976304;28;20065;-79
2023/03/03 06:26:31;;;;;;;2.83;0.32;;;;;;;2.70;54.61;101338.31;4977787;28;20062;-80
2023/03/03 06:28:59;;;;;;;4.57;0.20;;;;;;;2.75;54.13;101341.88;4976012;28;20134;-80
2023/03/03 06:31:26;;;;;;;5.53;0.28;;;;;;;2.74;54.55;101339.28;4976435;28;20565;-80
2023/03/03 06:33:53;;;;;;;10.68;0.60;;;;;;;2.74;54.93;101339.28;4976238;28;20051;-80
2023/03/03 06:36:20;;;;;;;6.82;1.17;;;;;;;2.72;54.81;101325.47;4978076;28;20380;-81
2023/03/03 06:38:47;;;;;;;6.55;0.40;;;;;;;2.72;54.74;101328.91;4978883;28;20046;-82
2023/03/03 06:41:14;;;;;;;6.40;0.10;;;;;;;2.68;54.60;101329.72;4976282;28;20129;-81
2023/03/03 06:43:43;;;;;;;2.92;0.20;;;;;;;2.69;54.80;101334.88;4978201;28;20069;-82
2023/03/03 06:46:10;;;;;;;8.60;0.75;;;;;;;2.60;55.07;101315.75;4975599;28;20657;-81
2023/03/03 06:48:37;;;;;;;6.05;0.20;;;;;;;2.69;54.83;101331.44;4976828;28;20050;-81
2023/03/03 06:51:15;;;;;;;2.92;0.35;;;;;;;2.67;55.19;101339.13;4978516;28;21010;-80
2023/03/03 06:53:42;;;;;;;7.78;0.28;;;;;;;2.66;54.99;101331.38;4978312;28;20364;-80
2023/03/03 06:56:10;;;;;;;8.20;1.00;;;;;;;2.67;54.67;101328.81;4977596;28;20766;-81
2023/03/03 06:58:36;;;;;;;3.67;0.30;;;;;;;2.62;54.87;101325.28;4979651;28;20047;-80
2023/03/03 07:01:17;;;;;;;2.38;0.47;;;;;;;2.67;54.70;101325.38;4977852;28;20069;-81
2023/03/03 07:03:47;;;;;;;6.10;0.90;;;;;;;2.61;55.31;101314.91;4977299;28;20050;-80
2023/03/03 07:06:22;;;;;;;4.30;0.20;;;;;;;2.44;54.91;101287.03;4975892;28;20061;-80
2023/03/03 07:08:50;;;;;;;4.60;0.43;;;;;;;2.62;55.20;101314.97;4964315;28;20047;-81
2023/03/03 07:11:19;;;;;;;12.93;1.05;;;;;;;2.68;55.19;101328.00;4975242;28;20058;-79
2023/03/03 07:13:49;;;;;;;8.98;0.25;;;;;;;2.67;55.22;101320.19;4979305;28;20517;-81
2023/03/03 07:16:19;;;;;;;2.53;0.32;;;;;;;2.69;54.96;101332.31;4975674;28;20058;-80
2023/03/03 07:18:51;;;;;;;5.43;0.43;;;;;;;2.71;55.35;101329.78;4977013;28;20491;-81
2023/03/03 07:21:20;;;;;;;3.63;0.20;;;;;;;2.73;54.79;101340.09;4976482;28;20581;-80
2023/03/03 07:23:49;;;;;;;3.30;0.20;;;;;;;2.76;54.81;101322.13;4977693;28;20051;-81
2023/03/03 07:26:21;;;;;;;3.40;0.20;;;;;;;2.75;55.35;101313.50;4975368;28;20046;-82
2023/03/03 07:28:54;;;;;;;3.92;0.35;;;;;;;2.78;55.25;101311.00;4978889;28;20624;-82
2023/03/03 07:31:35;;;;;;;4.43;1.23;;;;;;;2.81;54.87;101297.28;4977240;28;20494;-81
2023/03/03 07:34:14;;;;;;;4.00;0.65;;;;;;;2.83;55.20;101304.22;4975639;28;20101;-82
2023/03/03 07:36:41;;;;;;;7.40;0.30;;;;;;;2.83;55.00;101301.66;4977644;28;20055;-81
2023/03/03 07:39:25;;;;;;;9.93;0.30;;;;;;;2.90;54.81;101300.97;4978349;28;20509;-82
2023/03/03 07:41:53;;;;;;;7.40;0.40;;;;;;;2.94;55.00;101294.16;4975991;28;20050;-81
2023/03/03 07:44:30;;;;;;;1.50;0.20;;;;;;;2.99;54.92;101292.53;4976556;28;20050;-81
2023/03/03 07:46:59;;;;;;;7.15;0.30;;;;;;;2.99;55.30;101271.00;4977222;28;20498;-82
2023/03/03 07:49:35;;;;;;;7.38;0.63;;;;;;;3.09;55.24;101275.53;4975752;28;20078;-82
2023/03/03 07:52:18;;;;;;;9.07;0.30;;;;;;;3.06;55.46;101254.81;4973295;28;20055;-81
2023/03/03 07:54:46;;;;;;;6.43;0.30;;;;;;;3.12;54.76;101245.47;4975379;28;20047;-82
2023/03/03 07:57:22;;;;;;;6.25;0.30;;;;;;;3.28;54.98;101261.28;4975011;28;20046;-80
2023/03/03 07:59:51;;;;;;;8.55;0.85;;;;;;;3.24;54.91;101234.50;4974223;28;20047;-79
2023/03/03 08:02:41;;;;;;;6.72;0.35;;;;;;;3.40;54.90;101250.28;4974441;28;20121;-80
2023/03/03 08:05:31;;;;;;;7.43;0.40;;;;;;;3.48;55.13;101244.44;4972788;28;20122;-76
2023/03/03 08:08:15;;;;;;;5.78;0.50;;;;;;;3.53;54.76;101240.22;4970019;28;20053;-76
2023/03/03 08:10:46;;;;;;;7.40;0.38;;;;;;;3.60;55.00;101246.34;4970428;28;20066;-76
2023/03/03 08:13:21;;;;;;;7.38;0.30;;;;;;;3.63;54.82;101233.50;4969774;28;20055;-76
2023/03/03 08:15:51;;;;;;;5.47;0.35;;;;;;;3.72;54.45;101225.88;4970465;28;20053;-76
2023/03/03 08:18:24;;;;;;;3.97;0.40;;;;;;;3.82;54.75;101227.78;4969170;28;20074;-77
2023/03/03 08:21:01;;;;;;;9.57;0.40;;;;;;;3.89;54.62;101221.00;4968429;28;20051;-76
2023/03/03 08:23:28;;;;;;;4.22;0.40;;;;;;;3.95;54.86;101215.06;4970929;28;20053;-77
2023/03/03 08:25:55;;;;;;;5.38;0.82;;;;;;;4.04;54.80;101213.50;4971725;28;20050;-76
2023/03/03 08:28:23;;;;;;;8.18;0.20;;;;;;;4.04;54.58;101189.34;4972334;28;20054;-76
2023/03/03 08:30:50;;;;;;;6.82;0.30;;;;;;;4.13;54.31;101198.97;4971709;28;20134;-77
2023/03/03 08:33:18;;;;;;;5.47;0.20;;;;;;;4.22;54.54;101199.97;4973125;28;20057;-77
2023/03/03 08:35:47;;;;;;;5.22;0.30;;;;;;;4.27;54.48;101187.13;4973891;28;20047;-77
2023/03/03 08:38:16;;;;;;;10.00;0.30;;;;;;;4.28;54.36;101192.28;4969726;28;20530;-78
2023/03/03 08:40:44;;;;;;;7.03;0.30;;;;;;;4.37;54.30;101193.28;4966421;28;20519;-76
2023/03/03 08:43:15;;;;;;;5.65;0.30;;;;;;;4.39;54.15;101200.19;4967344;28;20091;-76
2023/03/03 08:45:44;;;;;;;6.03;0.30;;;;;;;4.43;54.33;101189.03;4966270;28;20050;-76
2023/03/03 08:48:11;;;;;;;6.93;0.30;;;;;;;4.50;53.88;101196.03;4964069;28;20053;-77
2023/03/03 08:50:38;;;;;;;6.93;0.30;;;;;;;4.55;54.06;101188.31;4962697;28;20047;-77
2023/03/03 08:53:16;;;;;;;3.85;0.25;;;;;;;4.59;54.14;101190.13;4967595;28;20484;-78
2023/03/03 08:55:43;;;;;;;4.35;0.20;;;;;;;4.64;53.64;101192.75;4968356;28;20038;-78
2023/03/03 08:58:16;;;;;;;6.40;0.20;;;;;;;4.66;53.40;101189.31;4967218;28;20039;-78
2023/03/03 09:00:44;;;;;;;3.00;0.25;;;;;;;4.67;53.73;101185.03;4966122;28;20050;-78
2023/03/03 09:03:10;;;;;;;7.47;0.52;;;;;;;4.72;53.28;101180.78;4962500;28;20052;-78
2023/03/03 09:05:39;;;;;;;10.30;1.08;;;;;;;4.74;53.56;101182.53;4961588;28;20418;-77
2023/03/03 09:08:07;;;;;;;3.25;0.20;;;;;;;4.77;53.20;101178.25;4961976;28;20047;-77
2023/03/03 09:10:36;;;;;;;6.15;0.45;;;;;;;4.80;53.39;101173.97;4962711;28;20058;-78
2023/03/03 09:13:07;;;;;;;3.70;0.40;;;;;;;4.83;53.45;101173.13;4965329;28;20373;-77
2023/03/03 09:15:36;;;;;;;11.00;0.75;;;;;;;4.87;53.09;101172.34;4961785;28;20056;-77
2023/03/03 09:18:15;;;;;;;17.13;1.25;;;;;;;4.90;53.19;101164.59;4966242;28;20094;-78
2023/03/03 09:20:44;;;;;;;14.50;0.40;;;;;;;4.93;53.32;101155.16;4960898;28;20047;-77
2023/03/03 09:23:38;;;;;;;8.20;0.55;;;;;;;4.94;53.22;101150.81;4963047;28;20419;-77
2023/03/03 09:26:27;;;;;;;5.20;0.45;;;;;;;5.00;52.94;101139.66;4958809;28;20522;-77
2023/03/03 09:28:55;;;;;;;9.68;0.85;;;;;;;5.00;52.84;101135.34;4963365;28;20051;-77
2023/03/03 09:31:26;;;;;;;11.25;0.60;;;;;;;5.02;52.73;101133.66;4958965;28;20055;-78
2023/03/03 09:33:56;;;;;;;3.72;0.30;;;;;;;5.01;52.92;101110.31;4967098;28;20045;-78
2023/03/03 09:36:26;;;;;;;7.18;1.08;;;;;;;5.05;52.86;101112.97;4964711;28;20039;-77
2023/03/03 09:38:54;;;;;;;8.32;0.30;;;;;;;5.04;52.81;101106.06;4961446;28;20057;-76
2023/03/03 09:41:50;;;;;;;4.82;0.65;;;;;;;5.12;53.00;101103.53;4960461;28;20105;-76
2023/03/03 09:44:37;;;;;;;11.18;1.45;;;;;;;5.14;52.77;101092.34;4939242;28;20046;-76
2023/03/03 09:47:18;;;;;;;8.23;1.38;;;;;;;5.17;52.36;101079.41;4962522;28;20061;-77
2023/03/03 09:49:57;;;;;;;5.85;0.50;;;;;;;5.16;52.67;101069.91;4959978;28;20047;-77
2023/03/03 09:52:36;;;;;;;3.58;0.20;;;;;;;5.21;52.87;101071.66;4959309;28;20055;-77
2023/03/03 09:55:16;;;;;;;4.13;0.32;;;;;;;5.24;52.76;101062.22;4961371;28;20043;-77
2023/03/03 09:58:00;;;;;;;6.07;0.35;;;;;;;5.28;52.59;101044.97;4960252;28;20392;-77
2023/03/03 10:00:42;;;;;;;5.88;0.68;;;;;;;5.30;52.54;101041.53;4961539;28;20055;-77
2023/03/03 10:03:40;;;;;;;6.15;0.20;;;;;;;5.34;52.65;101029.47;4961658;28;20053;-76
2023/03/03 10:06:16;;;;;;;1.33;0.20;;;;;;;5.35;52.84;101021.72;4946451;28;20525;-77
2023/03/03 10:09:02;;;;;;;9.25;0.25;;;;;;;5.39;52.67;101014.84;4964426;28;20047;-78
2023/03/03 10:11:34;;;;;;;4.10;0.17;;;;;;;5.41;52.47;101010.53;4961417;28;20055;-78
2023/03/03 10:14:25;;;;;;;5.80;0.20;;;;;;;5.45;52.50;101014.88;4962224;28;20059;-78
2023/03/03 10:17:16;;;;;;;6.72;0.20;;;;;;;5.47;52.42;101007.97;4965194;28;20057;-77
2023/03/03 10:19:52;;;;;;;6.07;0.35;;;;;;;5.48;52.20;101008.84;4962088;28;20051;-77
2023/03/03 10:22:24;;;;;;;4.22;0.10;;;;;;;5.50;52.13;101004.53;4964883;28;20047;-78
2023/03/03 10:25:03;;;;;;;2.72;0.20;;;;;;;5.51;52.06;100994.16;4961712;28;20047;-77
2023/03/03 10:27:58;;;;;;;5.38;0.30;;;;;;;5.55;52.04;101000.22;4962548;28;20047;-78
2023/03/03 10:30:39;;;;;;;4.20;0.25;;;;;;;5.56;51.91;101008.03;4959090;28;20419;-77
2023/03/03 10:33:11;;;;;;;2.95;0.22;;;;;;;5.57;51.75;100994.19;4962708;28;20145;-78
2023/03/03 10:36:09;;;;;;;2.17;0.38;;;;;;;5.58;51.70;100993.38;4958579;28;20058;-77
2023/03/03 10:38:47;;;;;;;1.58;0.40;;;;;;;5.58;51.60;100988.19;4962217;28;20043;-77
2023/03/03 10:41:35;;;;;;;5.78;0.30;;;;;;;5.57;52.09;100978.66;4961430;28;20455;-77
2023/03/03 10:44:26;;;;;;;5.82;0.20;;;;;;;5.59;51.67;100986.44;4956887;28;20074;-78
2023/03/03 10:47:10;;;;;;;5.22;0.43;;;;;;;5.58;51.77;100980.41;4960151;28;20043;-77
2023/03/03 10:49:51;;;;;;;5.63;0.22;;;;;;;5.59;51.63;100979.53;4960126;28;20043;-76
2023/03/03 10:52:32;;;;;;;6.18;0.17;;;;;;;5.61;52.26;100984.75;4960831;28;20150;-79
2023/03/03 10:55:36;;;;;;;1.90;0.28;;;;;;;5.60;51.94;100973.47;4966142;28;20066;-79
2023/03/03 10:58:24;;;;;;;8.15;0.50;;;;;;;5.62;52.22;100976.97;4922143;29;20047;-78
2023/03/03 11:01:01;;;;;;;6.68;0.30;;;;;;;5.61;52.55;100966.59;4920260;29;20054;-78
2023/03/03 11:03:43;;;;;;;5.13;0.30;;;;;;;5.59;52.51;100971.75;4951314;28;20773;-79
2023/03/03 11:06:18;;;;;;;5.55;1.00;;;;;;;5.57;53.24;100960.50;4964913;28;20057;-77
2023/03/03 11:08:52;;;;;;;1.38;0.10;;;;;;;5.54;53.42;100951.88;4961454;28;20046;-78
2023/03/03 11:11:31;;;;;;;4.30;0.10;;;;;;;5.56;53.85;100950.16;4969000;28;20076;-79
2023/03/03 11:14:09;;;;;;;2.25;0.10;;;;;;;5.48;54.19;100941.47;4961850;28;20054;-78
2023/03/03 11:16:47;;;;;;;0.70;0.10;;;;;;;5.52;54.71;100932.84;4966478;28;20047;-79
2023/03/03 11:19:34;;;;;;;3.08;0.60;;;;;;;5.52;55.07;100919.88;4964831;28;20087;-78
2023/03/03 11:22:19;;;;;;;3.15;0.45;;;;;;;5.46;55.30;100907.78;4961979;28;20062;-78
2023/03/03 11:24:57;;;;;;;3.55;0.25;;;;;;;5.48;55.54;100887.94;4960716;28;20404;-77
2023/03/03 11:27:38;;;;;;;4.80;0.40;;;;;;;5.49;55.79;100892.25;4966072;28;20057;-78
2023/03/03 11:30:33;;;;;;;3.55;0.50;;;;;;;5.48;55.84;100868.94;4970843;28;20066;-78
2023/03/03 11:33:06;;;;;;;2.90;0.10;;;;;;;5.47;55.97;100865.47;4960396;28;20039;-78
2023/03/03 11:35:44;;;;;;;3.72;0.40;;;;;;;5.45;56.32;100864.59;4963678;28;20126;-78
2023/03/03 11:38:28;;;;;;;0.88;0.20;;;;;;;5.46;56.46;100861.13;4966202;28;20047;-78
2023/03/03 11:40:58;;;;;;;6.47;1.15;;;;;;;5.39;56.65;100847.31;4968951;28;20054;-78
2023/03/03 11:43:31;;;;;;;3.13;0.43;;;;;;;5.44;56.95;100855.13;4963282;28;20053;-78
2023/03/03 11:46:05;;;;;;;2.20;0.17;;;;;;;5.43;56.86;100850.75;4961931;28;20039;-80
2023/03/03 11:48:39;;;;;;;1.48;0.10;;;;;;;5.37;57.27;100848.16;4962365;28;20487;-78
2023/03/03 11:51:12;;;;;;;2.47;0.10;;;;;;;5.37;57.66;100835.22;4961379;28;20051;-78
2023/03/03 11:53:50;;;;;;;2.03;0.28;;;;;;;5.35;57.44;100831.75;4960469;28;20074;-78
2023/03/03 11:56:24;;;;;;;1.27;0.17;;;;;;;5.29;57.85;100827.41;4967462;28;20051;-78